New Canaan, Connecticut
Current Conditions -  °F | °C
As of 6:56 PM on Friday 31 Oct 2014 (Local Time) from KHPN Reporting Station
Broken Clouds Broken Clouds  
Wind Chill: 51°   Ceiling: 6500
Heat Index: 51°   Visibility: 10mi
Dew Point: 37°   Wind: 7mph
Humidity: 59%   Direction: 30°NNE
Pressure: 29.9"   Gusts: NA
Location:  41.15°N, 73.5°W
Report Text: KHPN 312256Z 03006KT 10SM BKN065 11/03 A2990 RMK AO2 SLP129 T01060028
Loading
Personal Weather Stations






























Interactive Weather Map
Tropical Storm Tracking
New forecast layout! Learn more

10-Day Weather Forecast

Advertisements
Track Severe Weather on mobile